Time;durP1;ratioP1;P1;durP2;ratioP2;P2;SDS_P1;SDS_P2;PMS_P1;PMS_P2;Temp;Humidity;BMP_temperature;BMP_pressure;BME280_temperature;BME280_humidity;BME280_pressure;Samples;Min_cycle;Max_cycle;Signal;HPM_P1;HPM_P2
2024/04/03 00:01:46;;;;;;;;;;;;;;;22.35;37.81;100287.09;4146316;28;19937;-64
2024/04/03 00:03:47;;;;;;;;;;;;;;;22.35;37.83;100284.41;4146234;28;19976;-63
2024/04/03 00:05:48;;;;;;;;;;;;;;;22.35;37.65;100287.09;4146086;28;19937;-63
2024/04/03 00:07:48;;;;;;;;;;;;;;;22.36;37.84;100287.91;4146191;28;20403;-65
2024/04/03 00:09:49;;;;;;;;;;;;;;;22.37;37.83;100289.63;4149109;28;20016;-64
2024/04/03 00:11:49;;;;;;;;;;;;;;;22.37;37.92;100286.94;4149116;28;19929;-65
2024/04/03 00:13:50;;;;;;;;;;;;;;;22.36;37.80;100283.44;4149455;28;20457;-65
2024/04/03 00:15:51;;;;;;;;;;;;;;;22.34;37.97;100286.22;4149566;28;20352;-64
2024/04/03 00:17:54;;;;;;;;;;;;;;;22.35;38.00;100276.38;4149563;28;19926;-64
2024/04/03 00:19:55;;;;;;;;;;;;;;;22.33;37.99;100272.97;4149257;28;20805;-64
2024/04/03 00:21:56;;;;;;;;;;;;;;;22.34;37.85;100278.19;4149233;28;19976;-64
2024/04/03 00:23:56;;;;;;;;;;;;;;;22.34;37.73;100278.19;4133126;28;19926;-64
2024/04/03 00:25:58;;;;;;;;;;;;;;;22.35;38.05;100279.03;4132535;28;19926;-64
2024/04/03 00:27:58;;;;;;;;;;;;;;;22.33;37.74;100270.28;4132961;28;20036;-64
2024/04/03 00:29:59;;;;;;;;;;;;;;;22.33;37.87;100273.84;4132704;28;19964;-64
2024/04/03 00:32:00;;;;;;;;;;;;;;;22.34;38.05;100266.63;4133107;28;20048;-64
2024/04/03 00:34:00;;;;;;;;;;;;;;;22.34;38.14;100272.81;4133075;28;19937;-65
2024/04/03 00:36:01;;;;;;;;;;;;;;;22.33;38.17;100257.78;4116783;28;19988;-64
2024/04/03 00:38:01;;;;;;;;;;;;;;;22.34;37.78;100258.59;4132852;28;19926;-65
2024/04/03 00:40:03;;;;;;;;;;;;;;;22.36;37.90;100255.78;4132791;28;19980;-66
2024/04/03 00:42:03;;;;;;;;;;;;;;;22.36;37.91;100255.78;4132481;28;20331;-65
2024/04/03 00:44:04;;;;;;;;;;;;;;;22.34;37.99;100259.44;4132735;28;19934;-65
2024/04/03 00:46:05;;;;;;;;;;;;;;;22.33;38.18;100254.22;4132886;28;19932;-64
2024/04/03 00:48:06;;;;;;;;;;;;;;;22.33;38.09;100254.22;4132875;28;20449;-64
2024/04/03 00:50:06;;;;;;;;;;;;;;;22.32;37.97;100249.84;4132308;28;19926;-64
2024/04/03 00:52:07;;;;;;;;;;;;;;;22.31;38.00;100251.69;4132848;28;19926;-64
2024/04/03 00:54:08;;;;;;;;;;;;;;;22.32;38.15;100240.00;4132723;28;20281;-64
2024/04/03 00:56:10;;;;;;;;;;;;;;;22.32;38.05;100234.63;4132334;28;20363;-64
2024/04/03 00:58:10;;;;;;;;;;;;;;;22.33;37.98;100227.44;4132643;28;20414;-65
2024/04/03 01:00:11;;;;;;;;;;;;;;;22.32;38.00;100225.75;4132566;28;19953;-65
2024/04/03 01:02:13;;;;;;;;;;;;;;;22.32;38.01;100217.69;4132608;28;20469;-65
2024/04/03 01:04:13;;;;;;;;;;;;;;;22.32;38.12;100215.88;4132335;28;20314;-64
2024/04/03 01:06:14;;;;;;;;;;;;;;;22.33;38.22;100217.59;4132518;28;19930;-65
2024/04/03 01:08:14;;;;;;;;;;;;;;;22.34;37.96;100215.72;4132423;28;19933;-64
2024/04/03 01:10:15;;;;;;;;;;;;;;;22.32;37.86;100218.56;4132118;28;20005;-65
2024/04/03 01:12:16;;;;;;;;;;;;;;;22.32;38.25;100213.22;4132193;28;19925;-65
2024/04/03 01:14:16;;;;;;;;;;;;;;;22.34;38.22;100207.69;4132290;28;20316;-65
2024/04/03 01:16:17;;;;;;;;;;;;;;;22.33;38.22;100208.69;4132329;28;19941;-65
2024/04/03 01:18:17;;;;;;;;;;;;;;;22.32;37.88;100201.63;4132217;28;19965;-65
2024/04/03 01:20:18;;;;;;;;;;;;;;;22.32;38.13;100207.84;4132064;28;19985;-65
2024/04/03 01:22:19;;;;;;;;;;;;;;;22.33;38.16;100201.50;4137667;28;19975;-64
2024/04/03 01:24:22;;;;;;;;;;;;;;;22.32;38.15;100199.81;4131863;28;19925;-65
2024/04/03 01:26:22;;;;;;;;;;;;;;;22.31;38.13;100194.59;4148422;28;19925;-64
2024/04/03 01:28:23;;;;;;;;;;;;;;;22.32;38.19;100198.94;4132368;28;20330;-64
2024/04/03 01:30:24;;;;;;;;;;;;;;;22.31;38.30;100197.28;4132260;28;19937;-64
2024/04/03 01:32:24;;;;;;;;;;;;;;;22.33;37.92;100192.59;4132289;28;20035;-64
2024/04/03 01:34:25;;;;;;;;;;;;;;;22.32;38.16;100188.22;4132062;28;20430;-65
2024/04/03 01:36:25;;;;;;;;;;;;;;;22.33;38.39;100182.75;4131954;28;19933;-64
2024/04/03 01:38:26;;;;;;;;;;;;;;;22.32;38.17;100189.09;4131640;28;20359;-65
2024/04/03 01:40:27;;;;;;;;;;;;;;;22.33;38.13;100187.25;4132027;28;20009;-64
2024/04/03 01:42:28;;;;;;;;;;;;;;;22.31;38.11;100181.22;4131970;28;19953;-64
2024/04/03 01:44:28;;;;;;;;;;;;;;;22.31;38.13;100168.66;4132105;28;19930;-64
2024/04/03 01:46:29;;;;;;;;;;;;;;;22.31;38.41;100170.50;4131934;28;20072;-64
2024/04/03 01:48:29;;;;;;;;;;;;;;;22.30;38.21;100163.44;4131693;28;20391;-65
2024/04/03 01:50:37;;;;;;;;;;;;;;;22.30;38.21;100163.44;4148041;28;20419;-65
2024/04/03 01:52:37;;;;;;;;;;;;;;;22.29;38.49;100164.44;4131629;28;19930;-65
2024/04/03 01:54:38;;;;;;;;;;;;;;;22.29;38.21;100153.72;4131643;28;19926;-64
2024/04/03 01:56:39;;;;;;;;;;;;;;;22.30;38.38;100155.41;4131624;28;20028;-64
2024/04/03 01:58:39;;;;;;;;;;;;;;;22.30;38.33;100147.38;4131799;28;19926;-64
2024/04/03 02:00:40;;;;;;;;;;;;;;;22.31;38.42;100149.91;4131606;28;19926;-64
2024/04/03 02:02:40;;;;;;;;;;;;;;;22.31;38.44;100149.91;4131460;28;20004;-64
2024/04/03 02:04:41;;;;;;;;;;;;;;;22.31;38.32;100144.53;4147974;28;19972;-66
2024/04/03 02:06:42;;;;;;;;;;;;;;;22.31;38.57;100143.72;4131622;28;19926;-65
2024/04/03 02:08:42;;;;;;;;;;;;;;;22.29;38.49;100138.47;4131100;28;19925;-64
2024/04/03 02:10:43;;;;;;;;;;;;;;;22.30;38.31;100144.69;4131529;28;19926;-65
2024/04/03 02:12:44;;;;;;;;;;;;;;;22.29;38.46;100134.97;4131438;28;19929;-64
2024/04/03 02:14:44;;;;;;;;;;;;;;;22.28;38.50;100128.75;4131457;28;19926;-64
2024/04/03 02:16:46;;;;;;;;;;;;;;;22.29;38.31;100129.59;4147526;28;19957;-64
2024/04/03 02:18:46;;;;;;;;;;;;;;;22.28;38.37;100125.22;4131665;28;19954;-65
2024/04/03 02:20:47;;;;;;;;;;;;;;;22.28;38.43;100128.75;4131242;28;20335;-65
2024/04/03 02:22:48;;;;;;;;;;;;;;;22.28;38.45;100127.91;4140324;28;19925;-64
2024/04/03 02:24:48;;;;;;;;;;;;;;;22.28;38.44;100119.88;4131394;28;19925;-65
2024/04/03 02:26:49;;;;;;;;;;;;;;;22.29;38.71;100127.75;4131375;28;19981;-64
2024/04/03 02:28:49;;;;;;;;;;;;;;;22.29;38.61;100125.06;4131482;28;20015;-64
2024/04/03 02:30:58;;;;;;;;;;;;;;;22.31;38.78;100124.94;4130727;28;20002;-65
2024/04/03 02:32:59;;;;;;;;;;;;;;;22.32;38.41;100118.56;4131293;28;20028;-64
2024/04/03 02:34:59;;;;;;;;;;;;;;;22.31;38.34;100120.44;4131209;28;19930;-64
2024/04/03 02:37:00;;;;;;;;;;;;;;;22.31;38.38;100119.59;4130788;28;20088;-64
2024/04/03 02:39:01;;;;;;;;;;;;;;;22.30;38.64;100121.41;4131026;28;19933;-64
2024/04/03 02:41:02;;;;;;;;;;;;;;;22.28;38.30;100123.38;4131146;28;19932;-64
2024/04/03 02:43:03;;;;;;;;;;;;;;;22.29;38.44;100114.38;4131116;28;19932;-64
2024/04/03 02:45:03;;;;;;;;;;;;;;;22.27;38.68;100111.00;4130951;28;20451;-64
2024/04/03 02:47:04;;;;;;;;;;;;;;;22.30;38.77;100107.19;4131112;28;19992;-64
2024/04/03 02:49:05;;;;;;;;;;;;;;;22.27;38.61;100100.28;4130937;28;20039;-64
2024/04/03 02:51:09;;;;;;;;;;;;;;;22.28;38.65;100111.84;4130650;28;19957;-64
2024/04/03 02:53:10;;;;;;;;;;;;;;;22.28;38.56;100093.09;4130706;28;19926;-64
2024/04/03 02:55:10;;;;;;;;;;;;;;;22.28;38.60;100096.59;4131025;28;19972;-63
2024/04/03 02:57:11;;;;;;;;;;;;;;;22.30;38.58;100097.31;4130628;28;19976;-64
2024/04/03 02:59:12;;;;;;;;;;;;;;;22.30;38.51;100094.63;4130746;28;19988;-64
2024/04/03 03:01:12;;;;;;;;;;;;;;;22.30;38.52;100085.75;4130785;28;19930;-64
2024/04/03 03:03:13;;;;;;;;;;;;;;;22.30;38.92;100086.59;4130657;28;19930;-64
2024/04/03 03:05:14;;;;;;;;;;;;;;;22.28;38.52;100082.38;4130651;28;20143;-63
2024/04/03 03:07:14;;;;;;;;;;;;;;;22.28;38.56;100087.72;4130820;28;19934;-64
2024/04/03 03:09:17;;;;;;;;;;;;;;;22.26;38.50;100082.53;4130377;28;19925;-65
2024/04/03 03:11:18;;;;;;;;;;;;;;;22.27;38.82;100086.03;4130723;28;19926;-65
2024/04/03 03:13:18;;;;;;;;;;;;;;;22.26;38.55;100076.31;4130370;28;19974;-64
2024/04/03 03:15:19;;;;;;;;;;;;;;;22.25;38.60;100083.50;4130664;28;19926;-64
2024/04/03 03:17:19;;;;;;;;;;;;;;;22.26;38.70;100079.84;4130567;28;19972;-64
2024/04/03 03:19:20;;;;;;;;;;;;;;;22.24;38.70;100076.47;4130535;28;19930;-65
2024/04/03 03:21:21;;;;;;;;;;;;;;;22.26;38.52;100078.97;4130100;28;19926;-66
2024/04/03 03:23:22;;;;;;;;;;;;;;;22.26;38.85;100082.53;4144100;28;20049;-65
2024/04/03 03:25:22;;;;;;;;;;;;;;;22.26;39.08;100074.50;4146740;28;20019;-67
2024/04/03 03:27:23;;;;;;;;;;;;;;;22.27;38.84;100080.69;4146461;28;19932;-65
2024/04/03 03:29:23;;;;;;;;;;;;;;;22.26;38.69;100081.66;4146727;28;19964;-65
2024/04/03 03:31:24;;;;;;;;;;;;;;;22.27;38.51;100075.31;4146919;28;19929;-65
2024/04/03 03:33:25;;;;;;;;;;;;;;;22.27;38.71;100070.81;4146565;28;19929;-66
2024/04/03 03:35:26;;;;;;;;;;;;;;;22.29;38.67;100073.34;4146140;28;20394;-65
2024/04/03 03:37:27;;;;;;;;;;;;;;;22.26;38.75;100068.28;4146598;28;20075;-64
2024/04/03 03:39:27;;;;;;;;;;;;;;;22.25;38.65;100058.53;4146599;28;20414;-65
2024/04/03 03:41:28;;;;;;;;;;;;;;;22.26;38.70;100062.91;4146515;28;19976;-64
2024/04/03 03:43:28;;;;;;;;;;;;;;;22.27;38.97;100069.97;4145580;28;20051;-66
2024/04/03 03:45:29;;;;;;;;;;;;;;;22.26;38.75;100066.47;4146457;28;19933;-66
2024/04/03 03:47:30;;;;;;;;;;;;;;;22.27;38.87;100059.25;4130449;28;20433;-65
2024/04/03 03:54:08;;;;;;;;;;;;;;;22.27;38.63;100051.22;4146536;28;19932;-65
2024/04/03 03:56:09;;;;;;;;;;;;;;;22.28;38.71;100048.38;4146345;28;20306;-65
2024/04/03 03:58:10;;;;;;;;;;;;;;;22.27;38.81;100051.22;4146322;28;19979;-66
2024/04/03 04:00:11;;;;;;;;;;;;;;;22.28;38.75;100047.53;4146527;28;19932;-65
2024/04/03 04:02:11;;;;;;;;;;;;;;;22.27;39.02;100052.06;4146420;28;19925;-65
2024/04/03 04:04:12;;;;;;;;;;;;;;;22.29;38.99;100043.88;4145966;28;19935;-65
2024/04/03 04:06:12;;;;;;;;;;;;;;;22.27;38.75;100049.41;4146174;28;20000;-65
2024/04/03 04:08:13;;;;;;;;;;;;;;;22.24;39.00;100035.44;4146205;28;20060;-65
2024/04/03 04:10:13;;;;;;;;;;;;;;;22.25;38.89;100037.97;4146178;28;19925;-66
2024/04/03 04:12:14;;;;;;;;;;;;;;;22.26;38.80;100041.47;4146256;28;20023;-65
2024/04/03 04:14:15;;;;;;;;;;;;;;;22.26;38.99;100037.00;4146312;28;20459;-65
2024/04/03 04:16:16;;;;;;;;;;;;;;;22.25;38.85;100035.28;4146414;28;20005;-65
2024/04/03 04:18:17;;;;;;;;;;;;;;;22.25;38.71;100029.94;4145963;28;19926;-65
2024/04/03 04:20:18;;;;;;;;;;;;;;;22.26;38.91;100038.81;4146112;28;19939;-64
2024/04/03 04:22:18;;;;;;;;;;;;;;;22.26;38.84;100031.63;4146015;28;19930;-65
2024/04/03 04:24:21;;;;;;;;;;;;;;;22.25;39.06;100029.94;4129932;28;19944;-64
2024/04/03 04:26:21;;;;;;;;;;;;;;;22.25;38.91;100029.94;4129924;28;19925;-65
2024/04/03 04:28:23;;;;;;;;;;;;;;;22.26;38.93;100025.41;4130104;28;20000;-66
2024/04/03 04:30:23;;;;;;;;;;;;;;;22.24;38.78;100022.88;4113915;28;19927;-65
2024/04/03 04:32:24;;;;;;;;;;;;;;;22.24;38.96;100022.06;4129533;28;20537;-65
2024/04/03 04:34:25;;;;;;;;;;;;;;;22.23;38.94;100029.22;4129909;28;19953;-65
2024/04/03 04:36:26;;;;;;;;;;;;;;;22.23;39.03;100021.19;4129954;28;19930;-65
2024/04/03 04:38:27;;;;;;;;;;;;;;;22.24;38.77;100017.53;4129771;28;20226;-65
2024/04/03 04:40:27;;;;;;;;;;;;;;;22.24;39.28;100016.69;4129663;28;19933;-65
2024/04/03 04:42:28;;;;;;;;;;;;;;;22.24;39.09;100019.38;4129952;28;19930;-67
2024/04/03 04:44:29;;;;;;;;;;;;;;;22.24;38.92;100014.84;4129873;28;20024;-65
2024/04/03 04:46:29;;;;;;;;;;;;;;;22.24;38.91;100014.84;4129863;28;19926;-65
2024/04/03 04:48:31;;;;;;;;;;;;;;;22.24;39.01;100011.34;4129573;28;19930;-65
2024/04/03 04:50:31;;;;;;;;;;;;;;;22.25;38.95;100013.00;4129779;28;20387;-65
2024/04/03 04:52:32;;;;;;;;;;;;;;;22.23;38.80;100007.81;4129922;28;20004;-66
2024/04/03 04:54:33;;;;;;;;;;;;;;;22.25;39.13;100013.88;4130626;28;20284;-65
2024/04/03 04:56:34;;;;;;;;;;;;;;;22.23;38.86;100015.84;4132723;28;19933;-65
2024/04/03 04:58:35;;;;;;;;;;;;;;;22.23;39.00;100007.81;4132726;28;20315;-66
2024/04/03 05:00:35;;;;;;;;;;;;;;;22.23;39.10;100012.34;4132559;28;19973;-65
2024/04/03 05:02:36;;;;;;;;;;;;;;;22.23;39.07;100010.47;4132422;28;19958;-65
2024/04/03 05:04:37;;;;;;;;;;;;;;;22.24;38.92;100014.03;4132525;28;20047;-65
2024/04/03 05:06:37;;;;;;;;;;;;;;;22.24;39.07;100008.66;4132695;28;19929;-65
2024/04/03 05:08:38;;;;;;;;;;;;;;;22.23;39.20;100004.28;4132477;28;19925;-66
2024/04/03 05:10:39;;;;;;;;;;;;;;;22.22;39.16;100010.66;4132523;28;19930;-64
2024/04/03 05:12:42;;;;;;;;;;;;;;;22.21;39.05;100009.78;4132614;28;20497;-65
2024/04/03 05:14:42;;;;;;;;;;;;;;;22.23;39.07;100015.84;4132515;28;20752;-65
2024/04/03 05:16:43;;;;;;;;;;;;;;;22.23;39.08;100010.47;4132150;28;19968;-65
2024/04/03 05:18:43;;;;;;;;;;;;;;;22.24;39.01;100011.34;4132625;28;20378;-65
2024/04/03 05:20:44;;;;;;;;;;;;;;;22.24;38.86;100011.34;4132458;28;20502;-65
2024/04/03 05:22:45;;;;;;;;;;;;;;;22.23;39.05;100018.53;4141193;28;20012;-65
2024/04/03 05:24:45;;;;;;;;;;;;;;;22.21;39.23;100001.75;4148439;28;20382;-67
2024/04/03 05:26:46;;;;;;;;;;;;;;;22.20;39.12;100010.78;4148333;28;20453;-65
2024/04/03 05:28:46;;;;;;;;;;;;;;;22.20;39.11;100010.78;4148655;28;20003;-65
2024/04/03 05:30:47;;;;;;;;;;;;;;;22.20;39.04;100016.16;4148120;28;20379;-65
2024/04/03 05:32:48;;;;;;;;;;;;;;;22.18;39.23;100013.59;4148437;28;19925;-65
2024/04/03 05:34:48;;;;;;;;;;;;;;;22.17;39.32;100014.59;4148637;28;20346;-65
2024/04/03 05:36:49;;;;;;;;;;;;;;;22.18;39.17;100015.44;4148346;28;19925;-65
2024/04/03 05:38:49;;;;;;;;;;;;;;;22.18;38.99;100008.25;4164979;28;19925;-65
2024/04/03 05:40:50;;;;;;;;;;;;;;;22.21;39.17;100008.94;4148156;28;19933;-65
2024/04/03 05:42:55;;;;;;;;;;;;;;;22.21;39.28;100014.31;4132140;28;19937;-65
2024/04/03 05:44:56;;;;;;;;;;;;;;;22.21;39.19;100008.94;4147744;28;20307;-65
2024/04/03 05:46:56;;;;;;;;;;;;;;;22.23;39.10;100010.47;4148202;28;20023;-65
2024/04/03 05:48:57;;;;;;;;;;;;;;;22.21;39.17;100003.59;4148287;28;20271;-66
2024/04/03 05:51:04;;;;;;;;;;;;;;;22.23;38.98;100012.34;4148047;28;20359;-66
2024/04/03 05:53:05;;;;;;;;;;;;;;;22.22;39.16;100013.31;4148088;28;20009;-67
2024/04/03 05:55:06;;;;;;;;;;;;;;;22.21;39.34;100017.81;4148055;28;19926;-65
2024/04/03 05:57:06;;;;;;;;;;;;;;;22.21;39.09;100016.97;4148088;28;20029;-65
2024/04/03 05:59:07;;;;;;;;;;;;;;;22.19;38.99;100011.78;4147904;28;19925;-65
2024/04/03 06:01:07;;;;;;;;;;;;;;;22.20;39.17;100018.84;4147912;28;19929;-66
2024/04/03 06:03:08;;;;;;;;;;;;;;;22.21;39.08;100016.97;4147858;28;19933;-64
2024/04/03 06:05:09;;;;;;;;;;;;;;;22.19;39.11;100022.50;4147847;28;19926;-66
2024/04/03 06:07:09;;;;;;;;;;;;;;;22.21;39.21;100019.66;4146945;28;20033;-65
2024/04/03 06:09:10;;;;;;;;;;;;;;;22.21;39.46;100014.31;4147755;28;19929;-66
2024/04/03 06:11:11;;;;;;;;;;;;;;;22.20;39.09;100018.84;4148027;28;19965;-66
2024/04/03 06:13:11;;;;;;;;;;;;;;;22.23;39.42;100007.81;4147892;28;19964;-65
2024/04/03 06:15:12;;;;;;;;;;;;;;;22.22;39.24;100018.69;4147415;28;19925;-65
2024/04/03 06:17:13;;;;;;;;;;;;;;;22.22;39.22;100007.97;4147884;28;20027;-65
2024/04/03 06:19:15;;;;;;;;;;;;;;;22.22;39.16;100018.69;4147961;28;20413;-65
2024/04/03 06:21:18;;;;;;;;;;;;;;;22.23;39.58;100017.69;4147598;28;19930;-65
2024/04/03 06:23:18;;;;;;;;;;;;;;;22.23;39.38;100020.38;4147603;28;19925;-66
2024/04/03 06:25:19;;;;;;;;;;;;;;;22.24;39.19;100027.41;4131438;28;19972;-66
2024/04/03 06:27:20;;;;;;;;;;;;;;;22.22;39.09;100030.22;4131249;28;20068;-65
2024/04/03 06:29:20;;;;;;;;;;;;;;;22.23;39.11;100028.41;4131093;28;19926;-66
2024/04/03 06:31:21;;;;;;;;;;;;;;;22.20;39.09;100032.22;4131360;28;20360;-65
2024/04/03 06:33:22;;;;;;;;;;;;;;;22.21;39.44;100030.38;4131508;28;20383;-64
2024/04/03 06:35:24;;;;;;;;;;;;;;;22.22;39.46;100026.72;4131242;28;20335;-65
2024/04/03 06:37:25;;;;;;;;;;;;;;;22.21;39.35;100033.06;4131342;28;19980;-65
2024/04/03 06:39:25;;;;;;;;;;;;;;;22.23;39.29;100036.44;4131255;28;19925;-66
2024/04/03 06:41:26;;;;;;;;;;;;;;;22.23;39.38;100037.28;4131002;28;19926;-65
2024/04/03 06:43:27;;;;;;;;;;;;;;;22.23;39.27;100039.94;4131013;28;19930;-65
2024/04/03 06:45:27;;;;;;;;;;;;;;;22.21;39.47;100038.41;4131098;28;19962;-65
2024/04/03 06:47:28;;;;;;;;;;;;;;;22.20;39.15;100037.59;4131105;28;19971;-65
2024/04/03 06:49:29;;;;;;;;;;;;;;;22.20;39.27;100042.94;4131395;28;20298;-65
2024/04/03 06:51:31;;;;;;;;;;;;;;;22.21;39.36;100049.13;4130970;28;19926;-65
2024/04/03 06:53:32;;;;;;;;;;;;;;;22.22;39.48;100048.13;4130890;28;19926;-65
2024/04/03 06:55:32;;;;;;;;;;;;;;;22.20;39.41;100050.97;4131070;28;19926;-65
2024/04/03 06:57:33;;;;;;;;;;;;;;;22.21;39.42;100041.91;4130772;28;19933;-65
2024/04/03 06:59:33;;;;;;;;;;;;;;;22.21;39.35;100041.91;4131100;28;19941;-66
2024/04/03 07:01:34;;;;;;;;;;;;;;;22.21;39.30;100049.13;4130961;28;19925;-65
2024/04/03 07:03:35;;;;;;;;;;;;;;;22.22;39.33;100050.81;4130766;28;20438;-65
2024/04/03 07:05:35;;;;;;;;;;;;;;;22.24;39.52;100048.84;4130740;28;19936;-65
2024/04/03 07:07:36;;;;;;;;;;;;;;;22.23;39.32;100053.34;4130854;28;20049;-65
2024/04/03 07:09:37;;;;;;;;;;;;;;;22.24;39.32;100049.69;4130555;28;19929;-65
2024/04/03 07:11:38;;;;;;;;;;;;;;;22.24;39.39;100049.69;4130611;28;20295;-66
2024/04/03 07:13:38;;;;;;;;;;;;;;;22.25;39.51;100054.03;4130826;28;19934;-63
2024/04/03 07:15:39;;;;;;;;;;;;;;;22.24;39.34;100052.34;4130661;28;19953;-65
2024/04/03 07:17:39;;;;;;;;;;;;;;;22.23;39.35;100055.19;4130695;28;20040;-66
2024/04/03 07:19:40;;;;;;;;;;;;;;;22.22;39.34;100062.38;4130675;28;20371;-66
2024/04/03 07:21:42;;;;;;;;;;;;;;;22.23;39.58;100060.53;4131078;28;20376;-66
2024/04/03 07:23:42;;;;;;;;;;;;;;;22.22;39.39;100059.69;4146846;28;19933;-66
2024/04/03 07:25:43;;;;;;;;;;;;;;;22.22;39.34;100059.69;4130437;28;19925;-65
2024/04/03 07:27:44;;;;;;;;;;;;;;;22.23;39.21;100071.25;4146413;28;19925;-65
2024/04/03 07:29:46;;;;;;;;;;;;;;;22.22;39.43;100074.94;4146942;28;19979;-65
2024/04/03 07:31:46;;;;;;;;;;;;;;;22.22;39.58;100062.38;4146721;28;20662;-66
2024/04/03 07:33:47;;;;;;;;;;;;;;;22.25;39.65;100069.25;4146825;28;19968;-65
2024/04/03 07:35:49;;;;;;;;;;;;;;;22.24;39.37;100071.09;4146808;28;19925;-65
2024/04/03 07:37:49;;;;;;;;;;;;;;;22.25;39.81;100072.78;4146899;28;19925;-65
2024/04/03 07:39:50;;;;;;;;;;;;;;;22.26;39.46;100065.59;4146533;28;19925;-65
2024/04/03 07:41:50;;;;;;;;;;;;;;;22.27;39.64;100075.31;4146369;28;19984;-65
2024/04/03 07:43:52;;;;;;;;;;;;;;;22.27;39.71;100070.81;4146553;28;19926;-65
2024/04/03 07:45:58;;;;;;;;;;;;;;;22.28;39.62;100079.69;4146749;28;19949;-65
2024/04/03 07:47:59;;;;;;;;;;;;;;;22.27;39.59;100084.22;4146425;28;19925;-65
2024/04/03 07:50:06;;;;;;;;;;;;;;;22.26;39.51;100087.88;4163010;28;19932;-65
2024/04/03 07:52:07;;;;;;;;;;;;;;;22.26;39.35;100093.25;4146467;28;19926;-66
2024/04/03 07:54:07;;;;;;;;;;;;;;;22.27;39.37;100102.09;4130017;28;20465;-66
2024/04/03 07:56:08;;;;;;;;;;;;;;;22.25;39.53;100094.22;4162773;28;19961;-65
2024/04/03 07:58:09;;;;;;;;;;;;;;;22.27;39.39;100096.75;4146504;28;19948;-65
2024/04/03 08:00:10;;;;;;;;;;;;;;;22.29;39.55;100089.41;4146374;28;19926;-66
2024/04/03 08:02:10;;;;;;;;;;;;;;;22.28;39.61;100095.75;4129960;28;19932;-66
2024/04/03 08:04:11;;;;;;;;;;;;;;;22.30;39.80;100093.78;4146286;28;19926;-65
2024/04/03 08:06:11;;;;;;;;;;;;;;;22.31;39.46;100101.69;4132967;28;19934;-65
2024/04/03 08:08:12;;;;;;;;;;;;;;;22.31;39.59;100093.63;4143807;28;19933;-64
2024/04/03 08:10:13;;;;;;;;;;;;;;;22.31;39.65;100099.00;4161173;28;19925;-66
2024/04/03 08:12:13;;;;;;;;;;;;;;;22.36;39.51;100097.69;4145898;28;19925;-65
2024/04/03 08:14:14;;;;;;;;;;;;;;;22.40;40.15;100097.28;4139038;28;20004;-65
2024/04/03 08:16:15;;;;;;;;;;;;;;;22.39;40.02;100086.75;4129494;28;19963;-65
2024/04/03 08:18:15;;;;;;;;;;;;;;;22.38;40.48;100090.38;4143615;28;21588;-67
2024/04/03 08:20:16;;;;;;;;;;;;;;;22.43;40.68;100098.84;4148204;28;19976;-64
2024/04/03 08:22:17;;;;;;;;;;;;;;;22.44;40.16;100097.84;4145624;28;20008;-66
2024/04/03 08:24:18;;;;;;;;;;;;;;;22.44;40.29;100096.03;4145504;28;19930;-65
2024/04/03 08:26:18;;;;;;;;;;;;;;;22.49;40.05;100098.25;4146207;28;19936;-63
2024/04/03 08:28:19;;;;;;;;;;;;;;;22.52;40.20;100103.31;4145714;28;19930;-65
2024/04/03 08:30:20;;;;;;;;;;;;;;;22.58;40.07;100091.19;4147907;28;19983;-65
2024/04/03 08:32:21;;;;;;;;;;;;;;;22.57;39.75;100098.34;4148965;28;20397;-65
2024/04/03 08:34:21;;;;;;;;;;;;;;;22.56;39.89;100103.88;4149355;28;19925;-66
2024/04/03 08:36:22;;;;;;;;;;;;;;;22.62;39.86;100105.97;4148098;28;19960;-64
2024/04/03 08:38:23;;;;;;;;;;;;;;;22.60;39.87;100103.44;4142306;28;19930;-64
2024/04/03 08:40:24;;;;;;;;;;;;;;;22.61;40.08;100110.50;4148672;28;19925;-62
2024/04/03 08:42:24;;;;;;;;;;;;;;;22.59;40.59;100112.47;4129757;28;20068;-62
2024/04/03 08:44:31;;;;;;;;;;;;;;;22.61;40.22;100121.22;4132129;28;20384;-63
2024/04/03 08:46:32;;;;;;;;;;;;;;;22.62;40.18;100122.03;4134135;28;20394;-63
2024/04/03 08:48:34;;;;;;;;;;;;;;;22.61;40.03;100118.53;4147931;28;19925;-62
2024/04/03 08:50:35;;;;;;;;;;;;;;;22.65;40.01;100109.19;4132138;28;19930;-64
2024/04/03 08:52:36;;;;;;;;;;;;;;;22.70;40.01;100124.84;4147370;28;19930;-62
2024/04/03 08:54:41;;;;;;;;;;;;;;;22.71;39.82;100131.03;4147852;28;19938;-63
2024/04/03 08:56:42;;;;;;;;;;;;;;;22.73;39.85;100129.03;4147329;28;19935;-64
2024/04/03 08:58:42;;;;;;;;;;;;;;;22.74;40.03;100117.34;4131067;28;20486;-64
2024/04/03 09:00:44;;;;;;;;;;;;;;;22.78;39.65;100124.94;4146457;28;19926;-63
2024/04/03 09:02:44;;;;;;;;;;;;;;;22.83;39.74;100132.50;4148385;28;19925;-63
2024/04/03 09:04:45;;;;;;;;;;;;;;;22.83;39.51;100129.00;4147929;28;20402;-64
2024/04/03 09:06:45;;;;;;;;;;;;;;;22.82;39.67;100128.16;4142138;28;19952;-64
2024/04/03 09:08:46;;;;;;;;;;;;;;;22.80;39.74;100136.34;4146538;28;19929;-63
2024/04/03 09:10:49;;;;;;;;;;;;;;;22.77;39.95;100136.66;4146590;28;19925;-63
2024/04/03 09:12:49;;;;;;;;;;;;;;;22.78;39.62;100126.75;4148135;28;19929;-63
2024/04/03 09:14:50;;;;;;;;;;;;;;;22.77;39.70;100122.38;4147992;28;20362;-63
2024/04/03 09:16:57;;;;;;;;;;;;;;;22.73;39.46;100135.25;4148125;28;19925;-61
2024/04/03 09:19:07;;;;;;;;;;;;;;;22.72;39.41;100125.50;4147150;28;19925;-66
2024/04/03 09:21:08;;;;;;;;;;;;;;;22.70;39.60;100121.28;4131746;28;19941;-63
2024/04/03 09:23:09;;;;;;;;;;;;;;;22.69;39.79;100130.34;4145108;28;19973;-64
2024/04/03 09:25:10;;;;;;;;;;;;;;;22.68;39.76;100124.13;4147545;28;19933;-64
2024/04/03 09:27:11;;;;;;;;;;;;;;;22.68;39.87;100115.25;4139939;28;19960;-64
2024/04/03 09:29:15;;;;;;;;;;;;;;;22.65;39.81;100135.16;4147677;28;20465;-64
2024/04/03 09:31:21;;;;;;;;;;;;;;;22.64;39.70;100153.06;4147436;28;20135;-64
2024/04/03 09:33:24;;;;;;;;;;;;;;;22.64;39.72;100161.09;4147660;28;20415;-64
2024/04/03 09:35:29;;;;;;;;;;;;;;;22.61;39.90;100156.06;4147638;28;19960;-65
2024/04/03 09:37:32;;;;;;;;;;;;;;;22.61;39.95;100153.38;4147352;28;19936;-64
2024/04/03 09:39:32;;;;;;;;;;;;;;;22.62;39.81;100162.25;4147272;28;20370;-63
2024/04/03 09:41:33;;;;;;;;;;;;;;;22.60;40.09;100151.69;4131129;28;19968;-63
2024/04/03 09:43:36;;;;;;;;;;;;;;;22.61;39.70;100156.06;4131248;28;20008;-64
2024/04/03 09:45:37;;;;;;;;;;;;;;;22.59;39.84;100158.03;4131073;28;19929;-64
2024/04/03 09:47:38;;;;;;;;;;;;;;;22.59;39.82;100155.34;4131279;28;19926;-64
2024/04/03 09:49:50;;;;;;;;;;;;;;;22.61;39.86;100157.88;4131304;28;19930;-65
2024/04/03 09:51:50;;;;;;;;;;;;;;;22.62;39.84;100163.06;4138603;28;20457;-65
2024/04/03 09:53:52;;;;;;;;;;;;;;;22.60;39.98;100165.06;4131366;28;19925;-65
2024/04/03 09:55:53;;;;;;;;;;;;;;;22.60;39.90;100161.53;4131456;28;19926;-63
2024/04/03 09:58:08;;;;;;;;;;;;;;;22.59;40.35;100157.16;4147237;28;19925;-64
2024/04/03 10:00:12;;;;;;;;;;;;;;;22.61;40.18;100157.88;4147136;28;19926;-66
2024/04/03 10:02:14;;;;;;;;;;;;;;;22.62;39.84;100160.41;4147284;28;20016;-65
2024/04/03 10:04:14;;;;;;;;;;;;;;;22.64;40.14;100157.59;4146917;28;19926;-66
2024/04/03 10:06:16;;;;;;;;;;;;;;;22.64;40.13;100155.75;4146117;28;20264;-65
2024/04/03 10:08:18;;;;;;;;;;;;;;;22.65;39.94;100153.91;4146924;28;19929;-66
2024/04/03 10:10:19;;;;;;;;;;;;;;;22.67;40.08;100164.50;4146926;28;19929;-65
2024/04/03 10:12:21;;;;;;;;;;;;;;;22.69;39.84;100159.84;4147123;28;19980;-65
2024/04/03 10:14:28;;;;;;;;;;;;;;;22.69;39.90;100154.47;4146994;28;20493;-66
2024/04/03 10:16:32;;;;;;;;;;;;;;;22.67;40.08;100162.63;4147084;28;19925;-66
2024/04/03 10:18:36;;;;;;;;;;;;;;;22.68;39.81;100158.13;4147570;28;20489;-66
2024/04/03 10:20:38;;;;;;;;;;;;;;;22.69;39.88;100163.34;4147055;28;20554;-66
2024/04/03 10:22:41;;;;;;;;;;;;;;;22.69;40.07;100160.66;4147226;28;19925;-64
2024/04/03 10:24:45;;;;;;;;;;;;;;;22.71;40.18;100161.38;4147072;28;19960;-63
2024/04/03 10:26:46;;;;;;;;;;;;;;;22.72;40.10;100168.41;4147280;28;20426;-66